首页
METAR-TAF:

METAR-TAF

机场 :

Cortez, 科羅拉多州, 美国

纬度: 37-18-23N, 经度: 108-37-32W, 海拔: 1803米

当前天气观测

该预报发布于26分钟前的23:53 UTC
风速11节,风向西转西北,有时为23节阵风
温度 34°C
湿度 8%
气压 1020 hPa
能見度: 16.1公里
天空无云

METAR: KCEZ 122353Z AUTO 29011G23KT 10SM CLR 34/M05 A3011 RMK AO2 SLP115 T03441050 10356 20322 58015

时间: 18:19 (00:19 UTC)


TAF: 丢失

超过4000个机场的气象观测和天气预报(METAR&TAF报告)。

可查询的气象台以黄色和红色小点在地图上表示。

将鼠标移到小点上方,可查看气象台名称。

然后点击查看天气观测和预报。

如需切换地图:点击带黑十字的绿色按钮放大地图;点击带横线的绿色按钮缩小地图;或者点击绿色箭头查看邻近地区的地图。


METAR-TAF: